Time;durP1;ratioP1;P1;durP2;ratioP2;P2;SDS_P1;SDS_P2;PMS_P1;PMS_P2;Temp;Humidity;BMP_temperature;BMP_pressure;BME280_temperature;BME280_humidity;BME280_pressure;Samples;Min_cycle;Max_cycle;Signal;HPM_P1;HPM_P2
2022/06/05 00:02:15;;;;;;;24.13;12.95;;;;;;;17.29;61.42;101571.41;4938004;29;20319;-47
2022/06/05 00:05:12;;;;;;;19.83;12.73;;;;;;;17.29;60.94;101579.22;4938728;29;20468;-45
2022/06/05 00:07:51;;;;;;;22.95;12.10;;;;;;;17.25;61.92;101572.22;4938197;29;20140;-43
2022/06/05 00:10:26;;;;;;;21.42;12.77;;;;;;;17.22;61.86;101572.16;4938717;29;20031;-44
2022/06/05 00:13:10;;;;;;;23.00;12.63;;;;;;;17.20;62.05;101566.94;4938654;29;20035;-46
2022/06/05 00:15:36;;;;;;;25.90;13.27;;;;;;;17.16;61.68;101554.72;4937880;29;20380;-46
2022/06/05 00:18:01;;;;;;;24.75;13.48;;;;;;;17.13;62.44;101546.84;4938311;29;20047;-45
2022/06/05 00:20:27;;;;;;;26.75;13.75;;;;;;;17.09;62.49;101545.06;4938456;29;20023;-46
2022/06/05 00:22:54;;;;;;;22.83;13.48;;;;;;;17.04;63.11;101554.53;4937412;29;20087;-47
2022/06/05 00:25:19;;;;;;;27.58;13.00;;;;;;;17.00;62.65;101563.16;4938449;29;20032;-45
2022/06/05 00:28:03;;;;;;;25.13;13.00;;;;;;;16.98;62.61;101555.34;4938659;29;20038;-43
2022/06/05 00:31:00;;;;;;;29.40;13.57;;;;;;;16.94;62.38;101548.34;4938084;29;20045;-45
2022/06/05 00:33:37;;;;;;;28.90;14.60;;;;;;;16.88;62.90;101554.28;4938517;29;20027;-48
2022/06/05 00:36:05;;;;;;;25.67;13.35;;;;;;;16.86;63.36;101544.69;4937411;29;20028;-46
2022/06/05 00:38:44;;;;;;;26.85;13.73;;;;;;;16.82;63.25;101538.56;4938266;29;20041;-45
2022/06/05 00:41:15;;;;;;;28.85;13.75;;;;;;;16.79;63.67;101528.13;4937951;29;20032;-45
2022/06/05 00:43:40;;;;;;;26.13;13.63;;;;;;;16.74;63.98;101525.44;4937332;29;20034;-47
2022/06/05 00:46:06;;;;;;;24.73;14.70;;;;;;;16.70;63.65;101515.84;4937970;29;20106;-47
2022/06/05 00:48:31;;;;;;;25.80;13.38;;;;;;;16.67;64.14;101510.59;4937897;29;20023;-47
2022/06/05 00:50:56;;;;;;;29.27;15.30;;;;;;;16.64;64.17;101507.94;4937041;29;20035;-47
2022/06/05 00:53:22;;;;;;;27.33;13.90;;;;;;;16.61;64.10;101513.09;4937816;29;20384;-47
2022/06/05 00:55:51;;;;;;;26.80;14.20;;;;;;;16.57;64.26;101508.72;4937683;29;20110;-45
2022/06/05 00:58:18;;;;;;;24.48;13.63;;;;;;;16.54;64.27;101511.25;4936917;29;20024;-46
2022/06/05 01:00:47;;;;;;;24.02;13.93;;;;;;;16.52;64.37;101528.59;4937851;29;20075;-47
2022/06/05 01:03:14;;;;;;;29.90;14.50;;;;;;;16.51;64.31;101521.63;4936798;29;20019;-46
2022/06/05 01:05:40;;;;;;;24.95;15.40;;;;;;;16.49;64.73;101518.09;4937866;29;20024;-48
2022/06/05 01:08:07;;;;;;;25.98;15.50;;;;;;;16.45;64.60;101515.47;4937441;29;20039;-44
2022/06/05 01:10:46;;;;;;;27.88;15.00;;;;;;;16.43;64.26;101517.16;4936752;28;20055;-45
2022/06/05 01:13:33;;;;;;;26.48;14.90;;;;;;;16.44;64.36;101516.31;4937630;29;20027;-45
2022/06/05 01:16:14;;;;;;;27.33;14.35;;;;;;;16.41;64.04;101513.66;4937516;29;20038;-46
2022/06/05 01:18:42;;;;;;;31.75;15.82;;;;;;;16.39;64.82;101507.56;4936827;29;20111;-46
2022/06/05 01:21:28;;;;;;;28.25;14.40;;;;;;;16.40;64.47;101514.53;4937059;29;20031;-47
2022/06/05 01:24:19;;;;;;;28.95;15.15;;;;;;;16.41;65.17;101511.06;4937085;29;20051;-46
2022/06/05 01:27:00;;;;;;;26.85;15.60;;;;;;;16.45;64.51;101506.81;4928932;29;20488;-47
2022/06/05 01:29:37;;;;;;;27.20;15.80;;;;;;;16.47;64.69;101505.06;4937169;29;20028;-46
2022/06/05 01:32:12;;;;;;;24.60;15.25;;;;;;;16.50;64.47;101519.88;4936537;29;20035;-47
2022/06/05 01:34:53;;;;;;;34.08;15.40;;;;;;;16.54;64.21;101511.25;4937251;29;20119;-44
2022/06/05 01:37:31;;;;;;;27.92;15.45;;;;;;;16.56;63.99;101526.03;4937119;29;20030;-43
2022/06/05 01:40:11;;;;;;;26.77;15.18;;;;;;;16.59;63.58;101536.50;4936103;29;20027;-48
2022/06/05 01:42:41;;;;;;;25.45;14.70;;;;;;;16.61;63.82;101539.13;4936901;29;20428;-47
2022/06/05 01:45:22;;;;;;;31.27;15.90;;;;;;;16.63;63.71;101550.44;4936831;29;20039;-44
2022/06/05 01:47:53;;;;;;;27.75;15.75;;;;;;;16.65;64.02;101586.91;4936852;29;20030;-45
2022/06/05 01:50:39;;;;;;;28.70;15.48;;;;;;;16.67;63.98;101586.09;4936621;29;20043;-45
2022/06/05 01:53:15;;;;;;;27.80;15.10;;;;;;;16.66;64.31;101553.09;4935822;29;20431;-46
2022/06/05 01:55:47;;;;;;;26.98;14.60;;;;;;;16.60;65.32;101516.56;4936941;29;20442;-47
2022/06/05 01:58:16;;;;;;;26.45;15.90;;;;;;;16.53;65.93;101509.53;4936669;29;20047;-43
2022/06/05 02:00:46;;;;;;;28.77;16.20;;;;;;;16.53;65.05;101536.41;4935941;29;20020;-43
2022/06/05 02:03:22;;;;;;;27.50;14.45;;;;;;;16.52;65.01;101534.66;4936788;29;20063;-47
2022/06/05 02:05:57;;;;;;;27.55;15.35;;;;;;;16.50;65.31;101515.56;4936357;29;20454;-47
2022/06/05 02:08:46;;;;;;;24.85;14.77;;;;;;;16.49;65.03;101503.38;4935871;29;20082;-46
2022/06/05 02:11:25;;;;;;;24.08;15.20;;;;;;;16.39;66.78;101484.16;4936262;29;20368;-47
2022/06/05 02:13:55;;;;;;;30.85;16.30;;;;;;;16.34;67.81;101483.19;4935585;29;20451;-45
2022/06/05 02:16:20;;;;;;;31.23;15.65;;;;;;;16.29;67.82;101479.66;4936585;29;20090;-44
2022/06/05 02:18:46;;;;;;;31.70;16.50;;;;;;;16.23;66.77;101474.34;4936265;29;20040;-48
2022/06/05 02:21:12;;;;;;;29.48;16.23;;;;;;;16.18;66.21;101465.59;4935577;29;20079;-47
2022/06/05 02:23:38;;;;;;;31.65;16.20;;;;;;;16.10;67.40;101458.56;4936117;29;20036;-47
2022/06/05 02:26:06;;;;;;;29.80;16.92;;;;;;;15.99;68.23;101448.81;4936148;29;20107;-45
2022/06/05 02:28:32;;;;;;;27.70;16.40;;;;;;;15.94;68.15;101435.75;4935595;29;20042;-43
2022/06/05 02:31:16;;;;;;;25.88;16.15;;;;;;;15.93;66.99;101432.28;4935994;29;20027;-44
2022/06/05 02:34:05;;;;;;;28.95;16.83;;;;;;;15.90;67.17;101439.16;4936215;29;20041;-43
2022/06/05 02:36:41;;;;;;;27.88;16.75;;;;;;;15.87;67.33;101428.66;4935650;29;20035;-43
2022/06/05 02:39:34;;;;;;;29.73;16.42;;;;;;;15.87;67.32;101433.88;4935910;29;20115;-47
2022/06/05 02:42:31;;;;;;;30.88;15.75;;;;;;;15.83;67.40;101430.38;4935065;29;20115;-44
2022/06/05 02:45:05;;;;;;;29.02;15.30;;;;;;;15.83;67.38;101417.38;4930457;29;20054;-46
2022/06/05 02:47:49;;;;;;;32.90;15.50;;;;;;;15.84;67.10;101411.34;4936123;29;20079;-43
2022/06/05 02:50:35;;;;;;;27.77;16.02;;;;;;;15.83;67.15;101408.69;4935028;29;20039;-47
2022/06/05 02:53:03;;;;;;;31.33;15.55;;;;;;;15.82;67.85;101400.03;4935849;29;20080;-46
2022/06/05 02:55:29;;;;;;;26.73;15.75;;;;;;;15.82;67.76;101393.97;4935435;29;20118;-43
2022/06/05 02:57:55;;;;;;;27.10;15.20;;;;;;;15.79;67.75;101390.41;4935157;29;20559;-48
2022/06/05 03:00:24;;;;;;;30.75;14.60;;;;;;;15.80;66.61;101386.97;4935691;29;20028;-46
2022/06/05 03:05:34;;;;;;;26.13;14.30;;;;;;;15.78;67.28;101373.06;4936066;29;20078;-47
2022/06/05 03:08:00;;;;;;;25.15;14.30;;;;;;;15.78;66.54;101361.81;4935565;29;20024;-44
2022/06/05 03:10:26;;;;;;;30.13;14.80;;;;;;;15.80;66.03;101357.50;4934973;29;20091;-45
2022/06/05 03:12:51;;;;;;;27.13;14.32;;;;;;;15.79;66.36;101358.38;4935502;29;20396;-48
2022/06/05 03:15:17;;;;;;;31.90;15.93;;;;;;;15.80;66.92;101360.09;4935514;29;20480;-46
2022/06/05 03:17:43;;;;;;;28.50;15.68;;;;;;;15.78;67.09;101352.28;4934738;29;20020;-46
2022/06/05 03:20:09;;;;;;;29.40;14.68;;;;;;;15.80;66.91;101350.59;4935431;29;20024;-46
2022/06/05 03:22:35;;;;;;;28.50;14.82;;;;;;;15.77;67.29;101349.66;4935588;29;20048;-47
2022/06/05 03:25:01;;;;;;;33.47;15.93;;;;;;;15.71;66.76;101355.63;4934461;29;20491;-47
2022/06/05 03:27:27;;;;;;;25.35;15.02;;;;;;;15.63;67.00;101354.63;4935590;29;20080;-45
2022/06/05 03:29:52;;;;;;;32.05;15.52;;;;;;;15.56;67.89;101339.78;4935360;29;20079;-47
2022/06/05 03:32:17;;;;;;;28.80;15.15;;;;;;;15.52;68.51;101327.56;4934596;29;20052;-47
2022/06/05 03:34:42;;;;;;;28.35;14.68;;;;;;;15.47;68.17;101330.97;4935440;29;20059;-44
2022/06/05 03:37:08;;;;;;;27.92;14.52;;;;;;;15.42;68.23;101326.56;4935377;29;20475;-47
2022/06/05 03:39:34;;;;;;;31.20;15.50;;;;;;;15.41;68.29;101325.66;4934807;29;20035;-46
2022/06/05 03:41:59;;;;;;;33.85;15.05;;;;;;;15.40;68.19;101328.25;4935211;29;20483;-43
2022/06/05 03:44:26;;;;;;;34.65;16.85;;;;;;;15.42;67.66;101327.44;4935320;29;20046;-48
2022/06/05 03:46:51;;;;;;;29.23;14.77;;;;;;;15.44;67.56;101330.03;4934487;29;20034;-46
2022/06/05 03:49:16;;;;;;;31.92;15.82;;;;;;;15.46;67.66;101337.00;4935544;29;20031;-46
2022/06/05 03:51:45;;;;;;;26.20;15.10;;;;;;;15.48;68.07;101331.88;4935455;29;20032;-46
2022/06/05 03:54:10;;;;;;;27.33;14.98;;;;;;;15.50;68.00;101347.47;4934747;29;20027;-44
2022/06/05 03:56:35;;;;;;;33.92;16.00;;;;;;;15.53;67.18;101350.13;4935247;29;20369;-46
2022/06/05 03:59:01;;;;;;;28.60;15.07;;;;;;;15.55;67.69;101358.81;4934364;29;20027;-46
2022/06/05 04:01:27;;;;;;;33.47;16.40;;;;;;;15.53;67.73;101357.91;4935133;29;20115;-46
2022/06/05 04:03:53;;;;;;;31.88;16.90;;;;;;;15.51;68.17;101362.22;4935226;29;20047;-47
2022/06/05 04:06:21;;;;;;;28.08;16.38;;;;;;;15.50;68.49;101365.66;4934932;29;20058;-46
2022/06/05 04:08:48;;;;;;;27.48;15.88;;;;;;;15.50;69.00;101360.47;4938675;29;20063;-47
2022/06/05 04:11:16;;;;;;;33.22;16.77;;;;;;;15.48;68.69;101361.31;4938541;29;20082;-45
2022/06/05 04:13:42;;;;;;;32.30;17.02;;;;;;;15.50;68.39;101358.72;4937792;29;20530;-46
2022/06/05 04:16:12;;;;;;;29.80;15.35;;;;;;;15.47;68.18;101356.94;4938207;29;20063;-46
2022/06/05 04:18:38;;;;;;;38.15;17.13;;;;;;;15.47;68.33;101354.34;4938701;29;20110;-46
2022/06/05 04:21:08;;;;;;;34.47;16.70;;;;;;;15.47;68.11;101348.31;4937579;29;20042;-46
2022/06/05 04:23:34;;;;;;;28.88;15.13;;;;;;;15.44;68.77;101343.94;4938352;29;20048;-45
2022/06/05 04:25:59;;;;;;;33.72;16.80;;;;;;;15.42;68.63;101332.63;4938257;29;20047;-43
2022/06/05 04:28:24;;;;;;;28.92;15.88;;;;;;;15.41;69.29;101333.47;4937565;29;20055;-46
2022/06/05 04:30:49;;;;;;;34.42;16.90;;;;;;;15.35;69.77;101335.97;4938338;29;20043;-45
2022/06/05 04:33:15;;;;;;;37.67;16.98;;;;;;;15.30;70.18;101335.03;4938034;29;20388;-46
2022/06/05 04:35:40;;;;;;;34.15;16.85;;;;;;;15.26;70.12;101330.59;4937605;29;20488;-47
2022/06/05 04:38:05;;;;;;;33.63;17.02;;;;;;;15.23;70.85;101333.16;4938033;29;20028;-46
2022/06/05 04:40:31;;;;;;;32.25;17.20;;;;;;;15.21;70.74;101334.81;4938124;29;20122;-47
2022/06/05 04:42:56;;;;;;;35.72;16.30;;;;;;;15.22;70.49;101342.66;4937162;29;20392;-47
2022/06/05 04:45:21;;;;;;;35.25;17.50;;;;;;;15.24;70.06;101334.91;4937902;29;20039;-46
2022/06/05 04:47:47;;;;;;;34.10;17.50;;;;;;;15.27;69.84;101332.34;4937988;29;20098;-46
2022/06/05 04:50:12;;;;;;;32.67;16.80;;;;;;;15.28;69.76;101334.09;4937252;29;20028;-47
2022/06/05 04:52:38;;;;;;;31.27;15.88;;;;;;;15.29;70.14;101330.66;4937972;29;20055;-46
2022/06/05 04:55:04;;;;;;;36.35;18.02;;;;;;;15.31;70.16;101328.94;4937500;29;20027;-44
2022/06/05 04:57:29;;;;;;;31.90;17.48;;;;;;;15.31;70.16;101331.56;4937549;29;20027;-47
2022/06/05 04:59:55;;;;;;;29.88;16.83;;;;;;;15.31;70.22;101340.25;4937482;29;20046;-46
2022/06/05 05:02:20;;;;;;;32.92;17.77;;;;;;;15.33;70.04;101337.66;4936935;29;20499;-46
2022/06/05 05:04:47;;;;;;;39.83;17.58;;;;;;;15.34;70.51;101339.41;4937670;29;20024;-43
2022/06/05 05:07:14;;;;;;;31.38;18.15;;;;;;;15.36;70.01;101331.66;4937539;29;20039;-46
2022/06/05 05:09:39;;;;;;;33.03;17.03;;;;;;;15.36;69.69;101326.44;4936891;29;20031;-44
2022/06/05 05:12:05;;;;;;;31.98;17.25;;;;;;;15.37;69.58;101329.06;4937336;29;20098;-46
2022/06/05 05:14:31;;;;;;;40.05;18.25;;;;;;;15.39;69.77;101331.69;4937503;29;20042;-45
2022/06/05 05:16:56;;;;;;;34.63;17.67;;;;;;;15.40;70.12;101334.34;4936401;29;20055;-46
2022/06/05 05:19:21;;;;;;;37.58;18.25;;;;;;;15.43;69.60;101343.91;4937346;29;20040;-45
2022/06/05 05:21:47;;;;;;;31.45;17.70;;;;;;;15.43;69.18;101346.50;4937354;29;20111;-45
2022/06/05 05:24:12;;;;;;;39.97;18.58;;;;;;;15.44;69.38;101346.53;4936353;29;20044;-47
2022/06/05 05:26:37;;;;;;;36.25;18.27;;;;;;;15.46;69.35;101349.13;4937289;29;20059;-46
2022/06/05 05:29:04;;;;;;;37.75;19.88;;;;;;;15.48;69.48;101342.25;4937134;29;20387;-46
2022/06/05 05:31:32;;;;;;;33.90;18.00;;;;;;;15.50;69.18;101339.69;4936623;29;20028;-44
2022/06/05 05:33:59;;;;;;;34.05;18.10;;;;;;;15.56;69.42;101345.00;4937094;29;20024;-47
2022/06/05 05:36:25;;;;;;;41.28;18.92;;;;;;;15.61;69.75;101343.34;4937202;29;20030;-46
2022/06/05 05:44:20;;;;;;;39.20;18.35;;;;;;;15.75;68.83;101336.66;4936446;29;20062;-43
2022/06/05 05:46:46;;;;;;;34.47;18.45;;;;;;;15.82;68.70;101328.97;4936821;29;20055;-43
2022/06/05 05:49:13;;;;;;;36.92;18.45;;;;;;;15.83;67.97;101338.50;4936625;29;20067;-46
2022/06/05 05:51:39;;;;;;;40.92;20.17;;;;;;;15.88;67.91;101340.34;4936086;29;20035;-47
2022/06/05 05:54:05;;;;;;;34.60;19.48;;;;;;;15.92;67.63;101338.66;4936308;29;20024;-47
2022/06/05 05:56:31;;;;;;;34.28;19.55;;;;;;;15.98;68.10;101337.88;4936659;29;20042;-45
2022/06/05 05:58:57;;;;;;;38.97;19.85;;;;;;;16.03;67.71;101326.69;4935737;29;20106;-46
2022/06/05 06:01:22;;;;;;;30.70;18.25;;;;;;;16.10;67.63;101327.66;4936521;29;20035;-47
2022/06/05 06:03:47;;;;;;;32.15;18.77;;;;;;;16.21;68.06;101325.22;4936537;29;20035;-47
2022/06/05 06:06:13;;;;;;;34.17;19.08;;;;;;;16.28;67.86;101317.53;4935709;29;20035;-45
2022/06/05 06:08:38;;;;;;;35.67;18.80;;;;;;;16.39;67.08;101314.19;4936425;29;20054;-47
2022/06/05 06:11:04;;;;;;;31.15;18.42;;;;;;;16.43;66.56;101316.84;4936373;29;20027;-44
2022/06/05 06:13:29;;;;;;;38.25;19.50;;;;;;;16.48;66.75;101309.09;4935861;29;20031;-46
2022/06/05 06:15:55;;;;;;;35.15;18.58;;;;;;;16.54;67.00;101303.09;4936379;29;20024;-47
2022/06/05 06:18:21;;;;;;;41.30;19.77;;;;;;;16.64;65.91;101299.75;4936244;29;20039;-47
2022/06/05 06:20:46;;;;;;;34.55;19.42;;;;;;;16.76;66.06;101299.03;4935487;29;20372;-43
2022/06/05 06:23:12;;;;;;;36.97;19.65;;;;;;;16.84;66.17;101293.91;4936028;29;20047;-47
2022/06/05 06:25:38;;;;;;;33.50;19.50;;;;;;;16.92;65.36;101284.47;4936403;29;20479;-46
2022/06/05 06:28:04;;;;;;;36.05;19.52;;;;;;;17.02;64.56;101286.31;4935359;29;20027;-48
2022/06/05 06:30:32;;;;;;;35.27;19.87;;;;;;;17.11;65.01;101286.41;4935507;29;20424;-46
2022/06/05 06:32:57;;;;;;;36.25;19.77;;;;;;;17.22;64.90;101289.13;4935826;29;20460;-45
2022/06/05 06:35:23;;;;;;;36.83;19.08;;;;;;;17.33;64.20;101286.59;4935290;29;20028;-47
2022/06/05 06:37:48;;;;;;;31.02;19.05;;;;;;;17.43;64.13;101275.41;4935811;29;20016;-46
2022/06/05 06:40:13;;;;;;;37.13;19.48;;;;;;;17.55;64.29;101271.16;4936015;29;20031;-47
2022/06/05 06:42:39;;;;;;;33.38;18.67;;;;;;;17.65;63.82;101274.66;4935486;29;20028;-47
2022/06/05 06:45:05;;;;;;;35.15;19.88;;;;;;;17.73;63.21;101266.06;4935849;29;20993;-47
2022/06/05 06:47:30;;;;;;;35.60;20.88;;;;;;;17.85;64.30;101256.56;4935832;29;20063;-42
2022/06/05 06:49:55;;;;;;;32.90;20.50;;;;;;;17.98;63.90;101255.78;4934976;29;20476;-46
2022/06/05 06:52:20;;;;;;;39.08;21.30;;;;;;;18.07;63.55;101254.97;4935758;29;20023;-46
2022/06/05 06:54:48;;;;;;;40.22;20.92;;;;;;;18.14;61.72;101246.34;4935232;29;20428;-45
2022/06/05 06:57:14;;;;;;;38.28;21.02;;;;;;;18.20;61.56;101240.25;4935814;29;20056;-47
2022/06/05 06:59:39;;;;;;;38.28;20.77;;;;;;;18.26;62.98;101240.28;4935889;29;20024;-46
2022/06/05 07:02:04;;;;;;;35.85;21.55;;;;;;;18.32;61.24;101237.72;4934910;29;20952;-47
2022/06/05 07:04:29;;;;;;;40.47;21.08;;;;;;;18.42;62.95;101234.28;4935647;29;20031;-44
2022/06/05 07:06:55;;;;;;;33.72;21.08;;;;;;;18.52;61.91;101261.25;4935481;29;20102;-46
2022/06/05 07:09:21;;;;;;;34.40;20.60;;;;;;;18.63;61.33;101237.81;4934944;29;20024;-47
2022/06/05 07:11:46;;;;;;;39.85;21.77;;;;;;;18.72;60.65;101231.72;4935335;29;20400;-45
2022/06/05 07:14:12;;;;;;;33.92;20.95;;;;;;;18.72;61.70;101230.00;4935556;29;20031;-47
2022/06/05 07:16:38;;;;;;;39.33;23.48;;;;;;;18.80;60.87;101227.41;4935050;29;20386;-45
2022/06/05 07:19:04;;;;;;;41.33;23.48;;;;;;;18.94;60.99;101217.00;4935461;29;20031;-45
2022/06/05 07:21:29;;;;;;;35.53;22.23;;;;;;;18.98;60.24;101226.59;4935543;29;20035;-44
2022/06/05 07:23:56;;;;;;;37.42;22.13;;;;;;;19.08;60.40;101212.66;4934463;29;20236;-49
2022/06/05 07:26:24;;;;;;;33.92;22.50;;;;;;;19.23;61.32;101216.13;4935377;29;20544;-44
2022/06/05 07:28:49;;;;;;;37.45;21.15;;;;;;;19.43;60.72;101218.72;4935332;29;20110;-46
2022/06/05 07:31:16;;;;;;;38.20;21.77;;;;;;;19.54;59.40;101216.97;4934634;29;20120;-46
2022/06/05 07:33:41;;;;;;;37.47;22.03;;;;;;;19.68;59.34;101214.31;4935621;29;20028;-47
2022/06/05 07:36:10;;;;;;;40.00;23.48;;;;;;;19.76;58.51;101210.84;4935164;29;20038;-47
2022/06/05 07:38:37;;;;;;;36.63;22.58;;;;;;;19.81;58.70;101201.22;4934928;29;20024;-48
2022/06/05 07:41:05;;;;;;;40.00;22.70;;;;;;;19.83;58.91;101204.72;4936874;29;20035;-49
2022/06/05 07:43:30;;;;;;;35.25;22.65;;;;;;;19.93;59.82;101197.72;4939339;29;20063;-48
2022/06/05 07:45:57;;;;;;;46.42;23.73;;;;;;;20.00;59.45;101197.69;4938284;29;20062;-49
2022/06/05 07:48:22;;;;;;;37.38;22.95;;;;;;;20.02;57.66;101201.16;4938964;29;20028;-45
2022/06/05 07:56:33;;;;;;;35.70;22.77;;;;;;;20.21;60.07;101194.09;4935490;29;20156;-48
2022/06/05 07:58:59;;;;;;;37.17;22.75;;;;;;;20.25;58.79;101194.97;4938000;29;20040;-49
2022/06/05 08:01:24;;;;;;;37.38;22.15;;;;;;;20.26;59.10;101183.63;4938643;29;20388;-48
2022/06/05 08:03:49;;;;;;;41.17;22.00;;;;;;;20.30;59.19;101182.72;4938734;29;20059;-46
2022/06/05 08:06:14;;;;;;;36.15;21.50;;;;;;;20.30;58.15;101181.88;4937928;29;20039;-47
2022/06/05 08:08:40;;;;;;;35.30;21.77;;;;;;;20.43;58.80;101173.06;4938808;29;20044;-45
2022/06/05 08:11:05;;;;;;;32.17;21.20;;;;;;;20.49;58.55;101173.03;4938389;29;20041;-48
2022/06/05 08:13:31;;;;;;;31.35;21.27;;;;;;;20.52;58.13;101172.13;4937876;29;20499;-46
2022/06/05 08:15:57;;;;;;;39.58;21.85;;;;;;;20.55;58.09;101164.25;4938595;29;20353;-46
2022/06/05 08:18:22;;;;;;;34.83;21.50;;;;;;;20.69;59.03;101172.00;4938325;29;20032;-46
2022/06/05 08:20:49;;;;;;;33.00;22.58;;;;;;;20.86;57.91;101162.31;4937729;29;20027;-49
2022/06/05 08:23:14;;;;;;;37.37;23.43;;;;;;;20.85;56.83;101159.69;4938328;29;20407;-49
2022/06/05 08:25:40;;;;;;;41.90;22.95;;;;;;;20.78;57.33;101163.25;4938468;29;20507;-48
2022/06/05 08:28:05;;;;;;;41.63;22.35;;;;;;;20.81;58.66;101158.88;4937268;29;20098;-47
2022/06/05 08:30:31;;;;;;;32.35;21.80;;;;;;;21.01;58.88;101152.59;4938438;29;20111;-47
2022/06/05 08:32:56;;;;;;;35.88;23.10;;;;;;;21.04;57.38;101150.81;4938262;29;20024;-46
2022/06/05 08:35:21;;;;;;;34.83;23.10;;;;;;;21.12;57.23;101147.22;4937413;29;20118;-44
2022/06/05 08:43:46;;;;;;;36.30;23.90;;;;;;;21.63;56.21;101149.38;4938249;29;20103;-48
2022/06/05 08:46:40;;;;;;;36.88;23.30;;;;;;;21.71;56.17;101153.63;4938010;29;20039;-46
2022/06/05 08:49:12;;;;;;;31.20;23.45;;;;;;;21.93;55.43;101158.59;4928760;29;20051;-48
2022/06/05 08:52:05;;;;;;;33.58;22.42;;;;;;;22.25;56.40;101159.09;4937833;29;20058;-47
2022/06/05 08:54:40;;;;;;;35.60;24.15;;;;;;;22.29;54.20;101151.13;4937255;29;20039;-48
2022/06/05 08:57:15;;;;;;;35.30;25.27;;;;;;;22.14;54.24;101162.72;4937551;29;20107;-45
2022/06/05 08:59:55;;;;;;;33.20;23.15;;;;;;;22.27;54.35;101162.53;4937905;29;20035;-47
2022/06/05 09:02:34;;;;;;;34.30;23.02;;;;;;;22.20;55.00;101167.00;4937194;29;20031;-48
2022/06/05 09:05:04;;;;;;;38.50;24.05;;;;;;;22.19;54.66;101160.00;4937524;29;20079;-45
2022/06/05 09:07:38;;;;;;;42.35;26.40;;;;;;;22.02;54.50;101158.47;4937786;29;20024;-47
2022/06/05 09:10:13;;;;;;;36.10;24.33;;;;;;;21.87;55.87;101158.69;4936755;29;20044;-48
2022/06/05 09:12:45;;;;;;;40.97;23.67;;;;;;;21.90;56.71;101163.91;4937863;29;20107;-48
2022/06/05 09:15:16;;;;;;;35.10;25.05;;;;;;;21.81;56.39;101166.66;4937627;29;20075;-47
2022/06/05 09:17:49;;;;;;;43.88;26.27;;;;;;;21.67;56.25;101174.66;4937006;29;20106;-47
2022/06/05 09:20:17;;;;;;;38.60;25.50;;;;;;;21.53;56.83;101164.28;4937168;29;20031;-48
2022/06/05 09:22:59;;;;;;;34.60;24.75;;;;;;;21.43;57.77;101160.88;4936451;29;20483;-47
2022/06/05 09:25:39;;;;;;;37.70;25.45;;;;;;;21.31;58.56;101154.03;4937457;29;20365;-48
2022/06/05 09:28:24;;;;;;;33.28;24.60;;;;;;;21.35;59.25;101155.72;4937145;29;20038;-49
2022/06/05 09:31:40;;;;;;;34.80;24.13;;;;;;;21.27;57.87;101152.31;4936549;29;20067;-47
2022/06/05 09:34:18;;;;;;;38.33;25.50;;;;;;;21.10;58.90;101149.88;4915864;29;20069;-44
2022/06/05 09:36:56;;;;;;;40.78;26.00;;;;;;;21.05;59.68;101152.53;4915231;29;20024;-49
2022/06/05 09:39:25;;;;;;;43.35;27.63;;;;;;;20.94;59.67;101143.91;4929366;29;20036;-48
2022/06/05 09:42:29;;;;;;;45.13;28.17;;;;;;;20.81;59.35;101137.03;4937092;29;20028;-48
2022/06/05 09:45:16;;;;;;;40.17;27.17;;;;;;;20.69;60.65;101144.06;4936073;29;20425;-45
2022/06/05 09:47:52;;;;;;;43.50;28.23;;;;;;;20.59;60.15;101134.53;4936868;29;20036;-49
2022/06/05 09:50:27;;;;;;;37.20;27.40;;;;;;;20.56;60.87;101142.41;4936917;29;20028;-49
2022/06/05 09:52:54;;;;;;;46.47;28.73;;;;;;;20.46;61.19;101136.38;4936286;29;20028;-49
2022/06/05 09:55:28;;;;;;;44.15;29.23;;;;;;;20.43;62.25;101131.16;4936714;29;20421;-49
2022/06/05 09:58:25;;;;;;;41.95;28.10;;;;;;;20.39;61.68;101130.31;4935797;29;20395;-49
2022/06/05 10:00:57;;;;;;;43.60;28.83;;;;;;;20.26;62.68;101123.44;4936652;29;20253;-49
2022/06/05 10:03:38;;;;;;;47.55;28.90;;;;;;;20.24;62.60;101119.94;4936597;29;20384;-48
2022/06/05 10:06:18;;;;;;;43.28;28.75;;;;;;;20.28;62.45;101113.81;4935398;29;20476;-47
2022/06/05 10:08:54;;;;;;;42.83;29.20;;;;;;;20.29;64.66;101105.06;4936672;29;20111;-48
2022/06/05 10:11:52;;;;;;;49.55;30.00;;;;;;;20.38;63.85;101096.28;4936436;29;20039;-47
2022/06/05 10:14:54;;;;;;;45.22;31.10;;;;;;;20.45;62.79;101102.34;4936314;29;20038;-48
2022/06/05 10:17:25;;;;;;;44.17;29.77;;;;;;;20.50;63.75;101104.06;4936410;29;20035;-48
2022/06/05 10:20:08;;;;;;;46.75;30.85;;;;;;;20.58;64.17;101100.50;4935566;29;20039;-49
2022/06/05 10:22:39;;;;;;;49.28;31.63;;;;;;;20.57;63.57;101091.78;4936176;29;20056;-48
2022/06/05 10:25:16;;;;;;;47.65;30.88;;;;;;;20.68;63.74;101095.19;4936193;29;20028;-45
2022/06/05 10:27:50;;;;;;;51.05;33.03;;;;;;;20.71;66.28;101089.97;4935615;29;20038;-49
2022/06/05 10:30:18;;;;;;;46.30;31.15;;;;;;;20.66;67.42;101094.34;4936119;29;20042;-49
2022/06/05 10:33:11;;;;;;;47.60;33.38;;;;;;;20.72;65.92;101091.69;4935403;29;20031;-47
2022/06/05 10:35:48;;;;;;;47.75;33.00;;;;;;;20.69;65.74;101094.28;4936309;29;20097;-45
2022/06/05 10:38:41;;;;;;;53.30;34.72;;;;;;;20.68;66.19;101089.97;4936217;29;20028;-48
2022/06/05 10:41:25;;;;;;;54.45;35.97;;;;;;;20.64;67.68;101093.47;4934975;29;20436;-49
2022/06/05 10:44:33;;;;;;;50.47;34.42;;;;;;;20.75;69.34;101089.91;4936050;29;20027;-49
2022/06/05 10:47:26;;;;;;;52.63;36.42;;;;;;;20.82;68.81;101087.22;4934427;29;20389;-48
2022/06/05 10:50:17;;;;;;;55.85;37.42;;;;;;;20.82;69.85;101095.09;4935524;29;20071;-46
2022/06/05 10:53:03;;;;;;;59.35;37.72;;;;;;;20.70;69.47;101087.34;4936046;29;20094;-48
2022/06/05 10:55:44;;;;;;;54.13;35.07;;;;;;;20.53;69.49;101090.09;4935244;29;20042;-47
2022/06/05 10:58:20;;;;;;;54.35;36.15;;;;;;;20.35;71.08;101089.34;4935452;29;20023;-45
2022/06/05 11:00:48;;;;;;;57.35;37.50;;;;;;;20.24;72.31;101083.28;4935800;29;20071;-46
2022/06/05 11:03:24;;;;;;;58.05;37.33;;;;;;;20.12;71.97;101076.41;4935368;29;20481;-48
2022/06/05 11:06:02;;;;;;;58.25;36.50;;;;;;;20.02;72.94;101080.81;4935745;29;20042;-48
2022/06/05 11:08:57;;;;;;;59.60;38.10;;;;;;;19.92;72.09;101080.88;4935022;29;20026;-48
2022/06/05 11:14:34;;;;;;;60.05;40.05;;;;;;;19.65;74.65;101075.75;4935928;29;20086;-47
2022/06/05 11:17:25;;;;;;;50.60;36.38;;;;;;;19.56;72.72;101075.78;4940485;29;20588;-48
2022/06/05 11:20:06;;;;;;;54.90;36.85;;;;;;;19.40;74.03;101072.34;4939110;29;20459;-48
2022/06/05 11:22:34;;;;;;;59.78;36.53;;;;;;;19.25;75.72;101062.84;4941076;29;20062;-47
2022/06/05 11:25:21;;;;;;;53.13;37.05;;;;;;;19.21;74.42;101069.81;4941877;29;20024;-47
2022/06/05 11:28:05;;;;;;;;;;;;;;;19.22;73.04;101068.06;4942242;29;20172;-45
2022/06/05 11:31:02;;;;;;;53.45;37.58;;;;;;;19.05;75.75;101063.75;4940945;29;20389;-48
2022/06/05 11:33:29;;;;;;;52.78;37.15;;;;;;;18.96;78.73;101061.16;4941859;29;20043;-44
2022/06/05 11:36:17;;;;;;;58.22;37.88;;;;;;;18.91;78.88;101060.28;4941562;29;20341;-48
2022/06/05 11:39:09;;;;;;;62.40;42.17;;;;;;;18.76;82.63;101059.41;4941867;29;20032;-48
2022/06/05 11:41:54;;;;;;;63.92;41.95;;;;;;;18.66;83.35;101054.22;4941762;29;20601;-48
2022/06/05 11:44:46;;;;;;;65.57;42.15;;;;;;;18.57;82.36;101052.47;4941152;29;20039;-46
2022/06/05 11:47:30;;;;;;;70.18;43.75;;;;;;;18.38;85.54;101047.22;4941633;29;20036;-48
2022/06/05 11:50:01;;;;;;;71.78;45.60;;;;;;;18.31;87.63;101052.44;4941550;29;20039;-46
2022/06/05 11:52:41;;;;;;;76.35;48.03;;;;;;;18.25;89.85;101051.56;4941195;29;20468;-47
2022/06/05 11:55:28;;;;;;;75.53;47.90;;;;;;;18.23;89.01;101044.59;4941577;29;20079;-49